Time;durP1;ratioP1;P1;durP2;ratioP2;P2;SDS_P1;SDS_P2;PMS_P1;PMS_P2;Temp;Humidity;BMP_temperature;BMP_pressure;BME280_temperature;BME280_humidity;BME280_pressure;Samples;Min_cycle;Max_cycle;Signal;HPM_P1;HPM_P2
2023/04/18 00:00:35;;;;;;;14.68;9.38;;;10.90;67.20;;;;;;5056173;28;20056;-64
2023/04/18 00:03:01;;;;;;;14.00;8.05;;;11.00;67.60;;;;;;5056006;28;20029;-64
2023/04/18 00:05:29;;;;;;;19.95;10.95;;;11.00;67.50;;;;;;5056628;28;20017;-64
2023/04/18 00:07:55;;;;;;;18.85;9.00;;;11.00;67.50;;;;;;5055844;28;20032;-63
2023/04/18 00:10:21;;;;;;;16.70;8.70;;;11.00;67.50;;;;;;5056534;28;20028;-63
2023/04/18 00:12:47;;;;;;;17.33;9.55;;;11.00;67.50;;;;;;5055990;28;20366;-64
2023/04/18 00:15:14;;;;;;;17.83;9.45;;;11.00;67.50;;;;;;5055958;28;20025;-64
2023/04/18 00:17:40;;;;;;;18.35;9.23;;;11.00;67.50;;;;;;5055900;28;20043;-63
2023/04/18 00:20:11;;;;;;;14.63;8.60;;;11.00;67.70;;;;;;5055797;28;20020;-63
2023/04/18 00:22:41;;;;;;;16.30;9.20;;;11.00;67.60;;;;;;5056063;28;20093;-64
2023/04/18 00:25:09;;;;;;;19.17;9.23;;;11.00;67.60;;;;;;5055728;28;20113;-63
2023/04/18 00:27:36;;;;;;;16.95;8.38;;;11.10;67.70;;;;;;5055972;28;20036;-63
2023/04/18 00:30:02;;;;;;;12.70;7.55;;;11.00;67.80;;;;;;5055941;28;20021;-63
2023/04/18 00:32:28;;;;;;;14.27;7.93;;;11.00;67.80;;;;;;5055758;28;20036;-64
2023/04/18 00:34:54;;;;;;;13.77;7.68;;;11.10;68.00;;;;;;5055625;28;20024;-64
2023/04/18 00:37:20;;;;;;;15.05;8.52;;;11.00;68.10;;;;;;5055531;28;20123;-63
2023/04/18 00:39:46;;;;;;;12.15;7.20;;;11.00;68.10;;;;;;5055458;28;20060;-63
2023/04/18 00:42:12;;;;;;;12.63;7.82;;;11.00;68.00;;;;;;5055942;28;20029;-63
2023/04/18 00:44:38;;;;;;;12.35;6.82;;;11.10;68.30;;;;;;5055433;28;20032;-63
2023/04/18 00:47:04;;;;;;;12.10;6.70;;;11.10;68.10;;;;;;5055939;28;20029;-64
2023/04/18 00:49:31;;;;;;;12.25;6.65;;;11.10;68.00;;;;;;5055406;28;20059;-63
2023/04/18 00:51:58;;;;;;;14.32;7.60;;;11.10;68.10;;;;;;5055517;28;20032;-64
2023/04/18 00:54:26;;;;;;;11.57;7.28;;;11.10;68.00;;;;;;5055589;28;20032;-64
2023/04/18 00:56:52;;;;;;;11.95;6.53;;;11.10;67.60;;;;;;5055208;28;20025;-63
2023/04/18 00:59:20;;;;;;;10.48;5.80;;;11.20;67.50;;;;;;5055141;28;20040;-64
2023/04/18 01:01:46;;;;;;;8.50;4.68;;;11.20;67.60;;;;;;5055134;28;20179;-64
2023/04/18 01:04:12;;;;;;;11.95;6.65;;;11.30;67.40;;;;;;5055720;28;20088;-63
2023/04/18 01:06:39;;;;;;;11.43;6.20;;;11.30;67.50;;;;;;5055115;28;20048;-64
2023/04/18 01:09:05;;;;;;;9.73;5.63;;;11.30;67.40;;;;;;5054797;28;20329;-64
2023/04/18 01:11:31;;;;;;;9.90;5.90;;;11.30;67.70;;;;;;5054043;28;20036;-63
2023/04/18 01:14:01;;;;;;;9.05;5.07;;;11.30;67.70;;;;;;5055605;28;20025;-63
2023/04/18 01:16:31;;;;;;;11.30;5.28;;;11.30;67.50;;;;;;5055366;28;20499;-64
2023/04/18 01:18:58;;;;;;;8.48;5.03;;;11.30;67.50;;;;;;5055003;28;20044;-63
2023/04/18 01:21:25;;;;;;;9.48;5.45;;;11.30;67.50;;;;;;5059570;28;20350;-63
2023/04/18 01:23:52;;;;;;;8.57;4.75;;;11.30;67.30;;;;;;5059671;28;20017;-64
2023/04/18 01:26:19;;;;;;;7.93;5.10;;;11.30;67.30;;;;;;5059377;28;20025;-64
2023/04/18 01:28:45;;;;;;;8.10;4.55;;;11.40;67.10;;;;;;5059356;28;20043;-63
2023/04/18 01:31:10;;;;;;;8.40;4.80;;;11.40;67.20;;;;;;5058977;28;20365;-63
2023/04/18 01:33:37;;;;;;;8.60;4.88;;;11.40;67.10;;;;;;5059015;28;20036;-64
2023/04/18 01:36:03;;;;;;;11.02;5.25;;;11.40;67.00;;;;;;5058973;28;20067;-64
2023/04/18 01:38:29;;;;;;;11.60;5.50;;;11.30;67.00;;;;;;5058749;28;20481;-63
2023/04/18 01:40:55;;;;;;;10.05;5.25;;;11.30;67.10;;;;;;5058740;28;20033;-63
2023/04/18 01:43:21;;;;;;;11.68;5.30;;;11.30;67.00;;;;;;5058873;28;20045;-64
2023/04/18 01:45:47;;;;;;;9.02;5.25;;;11.30;66.80;;;;;;5059300;28;20032;-63
2023/04/18 01:48:13;;;;;;;8.23;4.82;;;11.30;66.80;;;;;;5058744;28;20021;-63
2023/04/18 01:50:39;;;;;;;9.40;4.63;;;11.20;66.80;;;;;;5058719;28;20032;-63
2023/04/18 01:53:05;;;;;;;9.80;4.47;;;11.30;66.80;;;;;;5057586;28;20047;-63
2023/04/18 01:55:31;;;;;;;8.68;4.80;;;11.20;66.60;;;;;;5059137;28;20033;-64
2023/04/18 01:57:57;;;;;;;9.35;5.18;;;11.20;66.60;;;;;;5058504;28;20025;-63
2023/04/18 02:00:23;;;;;;;9.98;5.00;;;11.20;66.60;;;;;;5058434;28;20029;-63
2023/04/18 02:02:49;;;;;;;10.48;4.65;;;11.20;66.70;;;;;;5058429;28;20021;-63
2023/04/18 02:05:15;;;;;;;9.88;4.97;;;11.20;66.80;;;;;;5058384;28;20070;-63
2023/04/18 02:07:41;;;;;;;10.50;4.82;;;11.10;66.70;;;;;;5058861;28;20057;-64
2023/04/18 02:10:09;;;;;;;8.80;4.30;;;11.10;66.90;;;;;;5057364;28;20029;-64
2023/04/18 02:12:35;;;;;;;8.77;4.75;;;11.00;67.00;;;;;;5058322;28;20029;-63
2023/04/18 02:15:01;;;;;;;10.25;5.40;;;10.90;67.10;;;;;;5058241;28;20032;-64
2023/04/18 02:17:28;;;;;;;11.82;5.25;;;10.90;67.00;;;;;;5058717;28;20032;-64
2023/04/18 02:19:54;;;;;;;8.07;4.47;;;10.90;67.20;;;;;;5058576;28;20116;-64
2023/04/18 02:22:20;;;;;;;10.70;4.80;;;10.80;67.10;;;;;;5058231;28;20052;-63
2023/04/18 02:24:46;;;;;;;10.57;4.20;;;10.80;67.30;;;;;;5058094;28;20469;-63
2023/04/18 02:27:12;;;;;;;7.40;4.38;;;10.80;67.50;;;;;;5058282;28;20013;-63
2023/04/18 02:29:38;;;;;;;9.63;4.45;;;10.70;67.30;;;;;;5057960;28;20021;-63
2023/04/18 02:32:04;;;;;;;7.93;4.40;;;10.70;67.50;;;;;;5057810;28;20093;-63
2023/04/18 02:34:32;;;;;;;8.90;4.53;;;10.60;67.40;;;;;;5057899;28;20079;-63
2023/04/18 02:36:58;;;;;;;7.80;3.83;;;10.60;67.50;;;;;;5057548;28;20107;-63
2023/04/18 02:39:24;;;;;;;7.68;4.05;;;10.60;67.50;;;;;;5057944;28;20024;-63
2023/04/18 02:41:50;;;;;;;7.45;3.95;;;10.60;67.50;;;;;;5058156;28;20025;-63
2023/04/18 02:44:16;;;;;;;6.38;3.85;;;10.60;67.40;;;;;;5057981;28;20021;-64
2023/04/18 02:46:42;;;;;;;7.85;3.50;;;10.60;67.30;;;;;;5057846;28;20017;-64
2023/04/18 02:49:08;;;;;;;8.10;4.47;;;10.60;67.30;;;;;;5058031;28;20036;-63
2023/04/18 02:51:34;;;;;;;7.78;3.80;;;10.50;67.20;;;;;;5057609;28;20446;-63
2023/04/18 02:54:00;;;;;;;9.05;3.83;;;10.60;67.50;;;;;;5058046;28;20071;-64
2023/04/18 02:56:26;;;;;;;5.18;3.25;;;10.60;67.40;;;;;;5057455;28;20044;-64
2023/04/18 02:58:52;;;;;;;7.03;3.35;;;10.50;67.50;;;;;;5057942;28;20401;-63
2023/04/18 03:01:18;;;;;;;9.45;4.20;;;10.50;67.40;;;;;;5057266;28;20358;-63
2023/04/18 03:03:44;;;;;;;6.15;3.25;;;10.40;67.50;;;;;;5056651;28;20499;-63
2023/04/18 03:06:11;;;;;;;6.97;4.00;;;10.40;67.60;;;;;;5057291;28;20025;-63
2023/04/18 03:08:37;;;;;;;6.30;3.70;;;10.40;67.80;;;;;;5057194;28;20035;-63
2023/04/18 03:11:03;;;;;;;6.45;3.70;;;10.40;67.70;;;;;;5057120;28;20017;-63
2023/04/18 03:13:29;;;;;;;5.65;3.30;;;10.30;68.00;;;;;;5057375;28;20095;-63
2023/04/18 03:15:55;;;;;;;5.70;3.22;;;10.20;68.00;;;;;;5057072;28;20025;-63
2023/04/18 03:18:21;;;;;;;5.50;3.30;;;10.20;68.00;;;;;;5057073;28;20025;-63
2023/04/18 03:20:47;;;;;;;7.80;3.53;;;10.20;68.30;;;;;;5057135;28;20041;-63
2023/04/18 03:23:13;;;;;;;7.10;3.70;;;10.10;68.40;;;;;;5056948;28;20106;-63
2023/04/18 03:25:39;;;;;;;6.72;3.70;;;10.10;68.30;;;;;;5057430;28;20025;-63
2023/04/18 03:28:05;;;;;;;6.60;3.58;;;10.00;68.40;;;;;;5057144;28;20032;-63
2023/04/18 03:30:31;;;;;;;5.97;3.22;;;10.00;68.40;;;;;;5057338;28;20385;-64
2023/04/18 03:32:58;;;;;;;8.27;3.20;;;10.00;68.40;;;;;;5056700;28;20025;-64
2023/04/18 03:35:24;;;;;;;4.85;3.15;;;10.00;68.60;;;;;;5056672;28;20037;-64
2023/04/18 03:37:51;;;;;;;4.63;2.90;;;9.90;68.50;;;;;;5055500;28;20045;-63
2023/04/18 03:40:17;;;;;;;5.18;3.30;;;10.00;68.70;;;;;;5056475;28;20072;-63
2023/04/18 03:42:43;;;;;;;4.95;3.20;;;10.00;68.50;;;;;;5056233;28;20187;-63
2023/04/18 03:45:10;;;;;;;5.35;2.80;;;9.90;68.60;;;;;;5056746;28;20052;-63
2023/04/18 03:47:36;;;;;;;5.00;3.08;;;9.90;68.70;;;;;;5056475;28;20100;-63
2023/04/18 03:50:03;;;;;;;4.65;2.50;;;9.90;68.80;;;;;;5056388;28;20029;-63
2023/04/18 03:52:29;;;;;;;5.30;3.20;;;9.90;68.50;;;;;;5056336;28;20450;-63
2023/04/18 03:54:55;;;;;;;4.72;2.95;;;9.90;68.40;;;;;;5056346;28;20053;-64
2023/04/18 03:57:21;;;;;;;5.55;2.80;;;9.90;68.40;;;;;;5056545;28;20025;-64
2023/04/18 03:59:47;;;;;;;2.88;2.20;;;9.80;68.40;;;;;;5056143;28;20524;-64
2023/04/18 04:02:12;;;;;;;5.60;2.78;;;9.80;68.30;;;;;;5056067;28;20025;-63
2023/04/18 04:04:39;;;;;;;2.85;2.30;;;9.90;68.10;;;;;;5056403;28;20017;-64
2023/04/18 04:07:05;;;;;;;3.70;2.70;;;9.90;68.00;;;;;;5055150;28;20029;-63
2023/04/18 04:09:31;;;;;;;3.83;2.60;;;9.90;67.90;;;;;;5056086;28;20028;-63
2023/04/18 04:11:57;;;;;;;7.20;3.03;;;10.00;68.20;;;;;;5055953;28;20029;-64
2023/04/18 04:14:23;;;;;;;4.22;2.53;;;9.90;68.10;;;;;;5056471;28;20378;-63
2023/04/18 04:16:51;;;;;;;3.78;2.70;;;9.90;68.10;;;;;;5055916;28;20025;-63
2023/04/18 04:19:17;;;;;;;7.50;3.15;;;9.90;68.20;;;;;;5055793;28;20032;-63
2023/04/18 04:21:43;;;;;;;5.65;3.03;;;9.90;68.50;;;;;;5055932;28;20033;-63
2023/04/18 04:24:09;;;;;;;3.50;2.25;;;9.90;68.50;;;;;;5055797;28;20461;-63
2023/04/18 04:26:35;;;;;;;3.30;2.50;;;9.90;68.30;;;;;;5056258;28;20029;-63
2023/04/18 04:29:02;;;;;;;5.03;2.78;;;9.90;68.30;;;;;;5054714;28;20071;-64
2023/04/18 04:31:28;;;;;;;4.13;2.78;;;9.90;68.20;;;;;;5055854;28;20044;-63
2023/04/18 04:33:54;;;;;;;6.30;2.90;;;9.90;68.30;;;;;;5056147;28;20025;-63
2023/04/18 04:36:21;;;;;;;4.65;2.70;;;9.90;68.20;;;;;;5055853;28;20027;-63
2023/04/18 04:38:47;;;;;;;3.10;2.50;;;9.90;68.30;;;;;;5055871;28;20057;-63
2023/04/18 04:41:14;;;;;;;4.88;2.63;;;9.90;68.30;;;;;;5055537;28;20032;-64
2023/04/18 04:43:41;;;;;;;3.70;2.65;;;9.90;68.20;;;;;;5055434;28;20025;-63
2023/04/18 04:46:08;;;;;;;4.15;2.80;;;9.90;68.20;;;;;;5055359;28;20044;-64
2023/04/18 04:48:34;;;;;;;4.15;2.60;;;9.90;67.90;;;;;;5055365;28;20032;-63
2023/04/18 04:51:00;;;;;;;4.88;2.40;;;9.90;67.80;;;;;;5055554;28;20017;-63
2023/04/18 04:53:31;;;;;;;3.00;2.25;;;10.00;67.70;;;;;;5055065;28;20044;-64
2023/04/18 04:55:57;;;;;;;3.88;2.65;;;10.10;67.70;;;;;;5054028;28;20044;-63
2023/04/18 04:58:24;;;;;;;5.40;2.80;;;10.10;67.70;;;;;;5055298;28;20029;-63
2023/04/18 05:00:51;;;;;;;3.75;2.70;;;10.10;67.80;;;;;;5055108;28;20025;-63
2023/04/18 05:03:17;;;;;;;5.55;2.97;;;10.20;67.70;;;;;;5055155;28;20056;-63
2023/04/18 05:05:43;;;;;;;8.07;3.20;;;10.20;67.50;;;;;;5054195;28;20018;-63
2023/04/18 05:08:09;;;;;;;5.43;2.92;;;10.20;67.40;;;;;;5055700;28;20029;-64
2023/04/18 05:10:36;;;;;;;6.40;3.78;;;10.30;67.40;;;;;;5055132;28;20079;-63
2023/04/18 05:13:03;;;;;;;7.38;4.18;;;10.40;67.50;;;;;;5054163;28;20075;-64
2023/04/18 05:15:30;;;;;;;6.53;3.15;;;10.60;67.60;;;;;;5055090;28;20020;-64
2023/04/18 05:17:56;;;;;;;5.15;3.40;;;11.10;67.70;;;;;;5054113;28;20086;-63
2023/04/18 05:20:23;;;;;;;5.97;3.25;;;11.50;67.20;;;;;;5053988;28;20508;-63
2023/04/18 05:22:49;;;;;;;11.45;3.90;;;12.00;66.50;;;;;;5053952;28;20029;-64
2023/04/18 05:25:15;;;;;;;6.22;3.40;;;12.70;65.50;;;;;;5054985;28;20017;-64
2023/04/18 05:27:42;;;;;;;6.00;3.63;;;13.40;64.50;;;;;;5054019;28;20061;-64
2023/04/18 05:30:09;;;;;;;5.60;3.10;;;14.40;63.30;;;;;;5054367;28;20104;-64
2023/04/18 05:32:35;;;;;;;7.15;3.53;;;15.30;61.60;;;;;;5055168;28;20033;-64
2023/04/18 05:35:01;;;;;;;4.80;3.42;;;16.40;60.20;;;;;;5055427;28;20446;-63
2023/04/18 05:37:27;;;;;;;6.05;3.60;;;17.60;58.30;;;;;;5053711;28;20053;-65
2023/04/18 05:39:53;;;;;;;8.13;4.20;;;18.90;55.90;;;;;;5054825;28;20029;-64
2023/04/18 05:42:19;;;;;;;8.80;4.32;;;20.10;53.40;;;;;;5054801;28;20025;-64
2023/04/18 05:44:45;;;;;;;7.70;4.55;;;21.20;50.90;;;;;;5054777;28;20028;-64
2023/04/18 05:47:11;;;;;;;10.93;5.07;;;22.10;48.60;;;;;;5055349;28;20104;-64
2023/04/18 05:49:37;;;;;;;11.93;5.20;;;22.90;46.90;;;;;;5055330;28;20021;-64
2023/04/18 05:52:04;;;;;;;9.73;4.78;;;23.60;45.40;;;;;;5054984;28;20132;-64
2023/04/18 05:54:30;;;;;;;13.55;4.68;;;23.90;44.10;;;;;;5055001;28;20347;-64
2023/04/18 05:56:56;;;;;;;9.23;4.35;;;23.90;43.50;;;;;;5054753;28;20036;-64
2023/04/18 05:59:22;;;;;;;8.82;3.80;;;23.50;43.30;;;;;;5053722;28;20469;-64
2023/04/18 06:01:48;;;;;;;6.63;3.42;;;23.00;43.50;;;;;;5054802;28;20485;-65
2023/04/18 06:04:15;;;;;;;5.75;3.47;;;23.10;43.60;;;;;;5055191;28;20025;-64
2023/04/18 06:06:41;;;;;;;7.70;3.25;;;23.90;43.10;;;;;;5057340;28;20044;-64
2023/04/18 06:09:07;;;;;;;4.60;2.80;;;25.10;41.80;;;;;;5058656;28;20025;-64
2023/04/18 06:11:34;;;;;;;5.00;2.67;;;26.40;40.00;;;;;;5057306;28;20071;-64
2023/04/18 06:14:00;;;;;;;6.22;2.72;;;27.60;38.20;;;;;;5058579;28;20063;-64
2023/04/18 06:16:27;;;;;;;7.22;2.78;;;28.80;36.10;;;;;;5058267;28;20033;-64
2023/04/18 06:18:53;;;;;;;5.28;2.60;;;29.90;34.50;;;;;;5057188;28;20053;-65
2023/04/18 06:21:20;;;;;;;4.53;2.65;;;30.90;33.10;;;;;;5057932;28;20446;-65
2023/04/18 06:23:46;;;;;;;5.85;2.35;;;31.90;31.60;;;;;;5058363;28;20017;-65
2023/04/18 06:26:13;;;;;;;6.93;2.50;;;32.60;30.50;;;;;;5058050;28;20430;-65
2023/04/18 06:28:39;;;;;;;2.83;2.13;;;33.20;29.10;;;;;;5057973;28;20025;-65
2023/04/18 06:31:05;;;;;;;4.72;2.30;;;33.60;27.70;;;;;;5056922;28;20028;-65
2023/04/18 06:33:32;;;;;;;3.92;2.10;;;33.90;27.70;;;;;;5057926;28;20058;-64
2023/04/18 06:35:58;;;;;;;4.10;1.80;;;33.70;26.60;;;;;;5058072;28;20048;-64
2023/04/18 06:38:25;;;;;;;2.35;1.70;;;33.40;27.10;;;;;;5057611;28;20045;-64
2023/04/18 06:40:51;;;;;;;2.05;1.70;;;33.40;26.90;;;;;;5058134;28;20449;-64
2023/04/18 06:43:17;;;;;;;2.15;1.65;;;33.60;26.40;;;;;;5057730;28;20029;-64
2023/04/18 06:45:43;;;;;;;2.00;1.77;;;34.00;26.30;;;;;;5057744;28;20067;-64
2023/04/18 06:48:09;;;;;;;2.05;1.80;;;34.50;26.00;;;;;;5058182;28;20430;-64
2023/04/18 06:50:35;;;;;;;1.63;1.25;;;34.40;25.80;;;;;;5057673;28;20025;-64
2023/04/18 06:53:01;;;;;;;1.60;1.50;;;33.90;25.80;;;;;;5057779;28;20021;-64
2023/04/18 06:55:27;;;;;;;2.63;1.90;;;34.20;25.80;;;;;;5058051;28;20032;-64
2023/04/18 06:57:53;;;;;;;3.47;2.25;;;34.60;25.30;;;;;;5058020;28;20025;-64
2023/04/18 07:00:20;;;;;;;3.08;2.20;;;34.90;24.60;;;;;;5057408;28;20110;-64
2023/04/18 07:02:46;;;;;;;2.63;1.80;;;35.50;24.40;;;;;;5057392;28;20021;-64
2023/04/18 07:05:12;;;;;;;1.60;1.50;;;35.80;23.80;;;;;;5057362;28;20437;-64
2023/04/18 07:07:38;;;;;;;2.72;1.90;;;35.60;23.80;;;;;;5057611;28;20028;-64
2023/04/18 07:10:05;;;;;;;1.80;1.42;;;35.40;23.80;;;;;;5057787;28;20108;-64
2023/04/18 07:12:32;;;;;;;2.30;1.70;;;35.50;23.40;;;;;;5057060;28;20443;-64
2023/04/18 07:14:58;;;;;;;2.22;1.60;;;35.90;23.00;;;;;;5057147;28;20033;-64
2023/04/18 07:17:24;;;;;;;2.13;1.50;;;36.00;23.30;;;;;;5056707;28;20032;-64
2023/04/18 07:19:50;;;;;;;2.13;1.60;;;35.70;23.20;;;;;;5057307;28;20315;-64
2023/04/18 07:22:16;;;;;;;3.50;1.38;;;34.70;23.90;;;;;;5057166;28;20029;-64
2023/04/18 07:24:42;;;;;;;2.13;1.50;;;33.70;24.70;;;;;;5056995;28;20032;-64
2023/04/18 07:27:09;;;;;;;2.22;1.52;;;32.80;25.30;;;;;;5056969;28;20032;-64
2023/04/18 07:29:35;;;;;;;3.85;1.77;;;31.90;26.10;;;;;;5057463;28;20445;-64
2023/04/18 07:32:01;;;;;;;2.35;1.70;;;31.00;26.40;;;;;;5056796;28;20024;-64
2023/04/18 07:34:29;;;;;;;2.38;1.50;;;30.20;27.30;;;;;;5057358;28;20025;-64
2023/04/18 07:36:56;;;;;;;2.00;1.73;;;29.60;28.20;;;;;;5039062;28;20442;-64
2023/04/18 07:39:22;;;;;;;1.70;1.60;;;29.00;28.80;;;;;;5057250;28;20025;-64
2023/04/18 07:41:48;;;;;;;3.40;2.10;;;28.50;29.40;;;;;;5056526;28;20087;-65
2023/04/18 07:44:14;;;;;;;2.17;1.90;;;28.20;29.40;;;;;;5057175;28;20025;-65
2023/04/18 07:46:40;;;;;;;1.60;1.50;;;27.80;29.70;;;;;;5056863;28;20017;-64
2023/04/18 07:49:06;;;;;;;2.53;1.98;;;27.50;30.10;;;;;;5056782;28;20504;-64
2023/04/18 07:51:33;;;;;;;3.05;1.80;;;27.20;30.10;;;;;;5056989;28;20029;-64
2023/04/18 07:54:00;;;;;;;3.85;1.90;;;26.90;30.30;;;;;;5056377;28;20112;-64
2023/04/18 07:56:26;;;;;;;1.98;1.60;;;26.90;30.50;;;;;;5056381;28;20029;-64
2023/04/18 07:58:53;;;;;;;2.22;1.75;;;26.80;30.70;;;;;;5056343;28;20074;-64
2023/04/18 08:01:22;;;;;;;2.00;1.70;;;26.70;30.60;;;;;;5056058;28;20040;-64
2023/04/18 08:03:50;;;;;;;3.53;1.80;;;26.60;30.30;;;;;;5056510;28;20071;-64
2023/04/18 08:06:16;;;;;;;2.75;2.05;;;26.40;30.60;;;;;;5056464;28;20044;-64
2023/04/18 08:08:43;;;;;;;2.20;1.50;;;26.30;30.80;;;;;;5056398;28;20099;-64
2023/04/18 08:11:08;;;;;;;3.67;2.00;;;26.20;30.90;;;;;;5056309;28;20100;-64
2023/04/18 08:13:35;;;;;;;2.72;1.60;;;26.20;31.20;;;;;;5056048;28;20140;-64
2023/04/18 08:16:01;;;;;;;1.70;1.60;;;26.30;31.40;;;;;;5056045;28;20025;-64
2023/04/18 08:18:27;;;;;;;1.63;1.52;;;26.20;31.20;;;;;;5055905;28;20072;-64
2023/04/18 08:20:54;;;;;;;2.78;1.55;;;26.20;31.10;;;;;;5056034;28;20025;-64
2023/04/18 08:23:20;;;;;;;2.60;1.77;;;26.00;31.10;;;;;;5055861;28;20025;-64
2023/04/18 08:25:46;;;;;;;2.92;1.73;;;25.90;31.10;;;;;;5054842;28;20021;-65
2023/04/18 08:28:13;;;;;;;2.60;1.70;;;25.80;31.30;;;;;;5056207;28;20059;-64
2023/04/18 08:30:39;;;;;;;2.53;1.48;;;25.80;31.20;;;;;;5056319;28;20029;-64
2023/04/18 08:33:05;;;;;;;1.83;1.60;;;25.80;31.10;;;;;;5054687;28;20033;-65
2023/04/18 08:35:31;;;;;;;1.95;1.80;;;25.70;31.20;;;;;;5055946;28;20027;-64
2023/04/18 08:37:57;;;;;;;2.33;1.83;;;25.80;31.30;;;;;;5055478;28;20450;-64
2023/04/18 08:40:23;;;;;;;2.28;1.65;;;25.80;31.40;;;;;;5056049;28;20028;-64
2023/04/18 08:42:51;;;;;;;2.40;1.63;;;25.90;31.10;;;;;;5055524;28;20415;-64
2023/04/18 08:45:19;;;;;;;2.65;1.48;;;25.90;31.40;;;;;;5055560;28;20060;-64
2023/04/18 08:47:45;;;;;;;2.67;1.95;;;26.00;31.70;;;;;;5055488;28;20039;-64
2023/04/18 08:50:12;;;;;;;1.75;1.60;;;26.10;31.70;;;;;;5055476;28;20029;-64
2023/04/18 08:52:47;;;;;;;4.50;1.80;;;26.10;31.90;;;;;;5055534;28;20029;-64
2023/04/18 08:55:14;;;;;;;1.90;1.70;;;26.20;31.70;;;;;;5055382;28;20036;-65
2023/04/18 08:57:40;;;;;;;1.85;1.65;;;26.30;31.60;;;;;;5055285;28;20029;-64
2023/04/18 09:00:09;;;;;;;1.75;1.63;;;26.30;31.20;;;;;;5055532;28;20458;-64
2023/04/18 09:02:41;;;;;;;2.65;1.60;;;26.20;30.80;;;;;;5055206;28;20017;-64
2023/04/18 09:05:20;;;;;;;2.00;1.48;;;26.10;30.50;;;;;;5054762;28;20095;-65
2023/04/18 09:07:48;;;;;;;1.88;1.40;;;26.00;30.20;;;;;;5055519;28;20021;-64
2023/04/18 09:10:32;;;;;;;2.78;1.73;;;26.00;29.70;;;;;;5055471;28;20068;-64
2023/04/18 09:13:01;;;;;;;1.95;1.67;;;25.80;30.00;;;;;;5055648;28;20489;-64
2023/04/18 09:15:28;;;;;;;1.80;1.67;;;25.80;30.20;;;;;;5055105;28;20037;-64
2023/04/18 09:17:57;;;;;;;2.08;1.55;;;25.70;29.20;;;;;;5055141;28;20048;-64
2023/04/18 09:20:33;;;;;;;2.05;1.77;;;25.60;29.50;;;;;;5054454;28;20025;-64
2023/04/18 09:23:04;;;;;;;3.75;1.90;;;25.50;29.80;;;;;;5055775;28;20100;-65
2023/04/18 09:25:38;;;;;;;2.20;2.00;;;25.30;30.00;;;;;;5054998;28;20031;-64
2023/04/18 09:28:22;;;;;;;2.63;1.80;;;25.00;30.00;;;;;;5055352;28;20022;-64
2023/04/18 09:30:51;;;;;;;3.88;1.70;;;24.90;30.60;;;;;;5055042;28;20068;-64
2023/04/18 09:33:27;;;;;;;1.50;1.40;;;24.90;30.80;;;;;;5054399;28;20389;-64
2023/04/18 09:36:15;;;;;;;2.25;1.90;;;24.90;30.70;;;;;;5055311;28;20029;-64
2023/04/18 09:38:41;;;;;;;1.88;1.45;;;24.90;30.70;;;;;;5053921;28;20068;-64
2023/04/18 09:41:12;;;;;;;2.08;1.65;;;25.00;30.90;;;;;;5056756;28;20041;-64
2023/04/18 09:43:38;;;;;;;1.65;1.55;;;25.20;30.80;;;;;;5059197;28;20118;-64
2023/04/18 09:46:06;;;;;;;1.80;1.70;;;25.40;30.50;;;;;;5059366;28;20033;-64
2023/04/18 09:48:31;;;;;;;1.85;1.52;;;25.40;30.50;;;;;;5059051;28;20100;-64
2023/04/18 09:51:09;;;;;;;2.35;1.55;;;25.40;30.60;;;;;;5058936;28;20104;-64
2023/04/18 09:53:40;;;;;;;2.22;1.98;;;25.50;30.80;;;;;;5057797;28;20025;-64
2023/04/18 09:56:28;;;;;;;2.03;1.85;;;25.60;30.50;;;;;;5058934;28;20072;-65
2023/04/18 09:59:08;;;;;;;3.05;1.80;;;25.60;30.50;;;;;;5058643;28;20032;-64
2023/04/18 10:01:34;;;;;;;1.92;1.73;;;25.60;31.00;;;;;;5058707;28;20451;-64
2023/04/18 10:04:03;;;;;;;1.95;1.70;;;25.70;31.40;;;;;;5058980;28;20100;-64
2023/04/18 10:06:32;;;;;;;2.83;1.85;;;25.90;31.20;;;;;;5058378;28;20029;-64
2023/04/18 10:08:59;;;;;;;2.90;1.92;;;26.00;31.20;;;;;;5058352;28;20025;-64
2023/04/18 10:11:25;;;;;;;3.53;2.17;;;26.00;31.10;;;;;;5058198;28;20032;-64
2023/04/18 10:13:56;;;;;;;2.60;2.08;;;26.00;30.80;;;;;;5058254;28;20036;-64
2023/04/18 10:16:22;;;;;;;3.65;2.15;;;26.00;30.10;;;;;;5058524;28;20033;-64
2023/04/18 10:18:49;;;;;;;2.30;2.10;;;26.00;30.90;;;;;;5058234;28;20029;-64
2023/04/18 10:21:16;;;;;;;2.17;1.98;;;26.00;30.90;;;;;;5057084;28;20028;-64
2023/04/18 10:23:42;;;;;;;3.78;2.10;;;26.00;30.80;;;;;;5058182;28;20021;-64
2023/04/18 10:26:09;;;;;;;2.97;2.10;;;26.00;31.00;;;;;;5058107;28;20033;-64
2023/04/18 10:28:55;;;;;;;4.80;2.30;;;25.90;31.30;;;;;;5058104;28;20024;-64
2023/04/18 10:31:23;;;;;;;3.05;2.20;;;25.90;31.40;;;;;;5057347;28;20083;-65
2023/04/18 10:33:53;;;;;;;3.10;2.33;;;25.80;31.90;;;;;;5057053;28;20440;-64
2023/04/18 10:36:20;;;;;;;2.45;2.20;;;25.90;32.10;;;;;;5057884;28;20029;-64
2023/04/18 10:38:54;;;;;;;2.42;2.17;;;26.00;32.20;;;;;;5057734;28;20363;-64
2023/04/18 10:41:32;;;;;;;2.90;2.40;;;26.00;32.20;;;;;;5057667;28;20041;-64
2023/04/18 10:44:08;;;;;;;3.15;2.50;;;26.00;32.00;;;;;;5056905;28;20043;-64
2023/04/18 10:46:49;;;;;;;2.60;2.22;;;26.00;31.70;;;;;;5057620;28;20029;-64
2023/04/18 10:49:22;;;;;;;2.70;2.30;;;25.90;31.70;;;;;;5057944;28;20017;-65
2023/04/18 10:51:51;;;;;;;2.85;2.42;;;25.80;31.50;;;;;;5056381;28;20112;-65
2023/04/18 10:54:40;;;;;;;2.97;2.47;;;25.80;32.10;;;;;;5057648;28;20033;-64
2023/04/18 10:57:08;;;;;;;3.05;2.40;;;25.80;31.50;;;;;;5057720;28;20036;-64
2023/04/18 10:59:37;;;;;;;6.05;2.53;;;25.80;31.70;;;;;;5057387;28;20029;-65
2023/04/18 11:02:25;;;;;;;2.95;2.60;;;25.90;31.80;;;;;;5057257;28;20049;-64
2023/04/18 11:04:54;;;;;;;3.63;2.58;;;25.90;31.60;;;;;;5057597;28;20045;-65
2023/04/18 11:07:40;;;;;;;4.05;2.30;;;25.90;31.70;;;;;;5057303;28;20021;-64
2023/04/18 11:10:08;;;;;;;2.17;1.98;;;25.90;31.30;;;;;;5057862;28;20025;-65
2023/04/18 11:12:36;;;;;;;3.17;2.45;;;25.90;31.60;;;;;;5057133;28;20079;-64
2023/04/18 11:15:09;;;;;;;3.60;2.63;;;25.90;32.10;;;;;;5057710;28;20067;-65
2023/04/18 11:17:39;;;;;;;3.60;2.53;;;26.00;32.20;;;;;;5056325;28;20028;-65
2023/04/18 11:20:08;;;;;;;2.75;2.47;;;26.10;32.30;;;;;;5057326;28;20025;-64
2023/04/18 11:22:43;;;;;;;7.00;2.60;;;26.20;32.20;;;;;;5056988;28;20100;-65
2023/04/18 11:25:10;;;;;;;2.90;2.35;;;26.30;32.40;;;;;;5057567;28;20021;-65
2023/04/18 11:27:36;;;;;;;3.05;2.47;;;26.40;32.30;;;;;;5057547;28;20088;-64
2023/04/18 11:30:02;;;;;;;3.72;2.80;;;26.40;32.50;;;;;;5056272;28;20025;-64
2023/04/18 11:32:28;;;;;;;3.08;2.15;;;26.40;32.30;;;;;;5056778;28;20029;-64
2023/04/18 11:34:54;;;;;;;4.15;3.10;;;26.30;32.00;;;;;;5057361;28;20021;-64
2023/04/18 11:37:21;;;;;;;3.35;2.50;;;26.20;32.00;;;;;;5056478;28;20076;-64
2023/04/18 11:39:47;;;;;;;2.90;2.40;;;26.20;31.90;;;;;;5055690;28;20032;-64
2023/04/18 11:42:13;;;;;;;3.33;2.67;;;26.10;32.10;;;;;;5056629;28;20017;-64
2023/04/18 11:44:44;;;;;;;2.75;2.50;;;26.10;32.20;;;;;;5055585;28;20035;-64
2023/04/18 11:47:25;;;;;;;3.83;2.80;;;26.10;32.30;;;;;;5056361;28;20039;-64
2023/04/18 11:49:56;;;;;;;3.22;2.60;;;26.10;32.10;;;;;;5056429;28;20435;-64
2023/04/18 11:52:22;;;;;;;3.72;2.90;;;26.00;32.30;;;;;;5055346;28;20035;-65
2023/04/18 11:54:48;;;;;;;4.03;2.78;;;25.90;32.30;;;;;;5056551;28;20052;-64
2023/04/18 11:57:28;;;;;;;3.03;2.60;;;25.80;32.10;;;;;;5056525;28;20508;-64
2023/04/18 11:59:56;;;;;;;3.75;2.80;;;25.60;31.60;;;;;;5056130;28;20036;-64
2023/04/18 12:02:25;;;;;;;3.08;2.70;;;25.50;32.10;;;;;;5056056;28;20108;-64
2023/04/18 12:04:57;;;;;;;4.53;2.78;;;25.40;32.30;;;;;;5055641;28;20017;-64
2023/04/18 12:07:38;;;;;;;3.13;2.50;;;25.40;32.40;;;;;;5056097;28;20387;-64
2023/04/18 12:10:20;;;;;;;3.17;2.67;;;25.40;32.60;;;;;;5056070;28;20017;-64
2023/04/18 12:12:48;;;;;;;3.88;3.03;;;25.40;32.20;;;;;;5056075;28;20029;-64
2023/04/18 12:15:15;;;;;;;3.83;3.05;;;25.20;31.30;;;;;;5055961;28;20102;-64
2023/04/18 12:17:47;;;;;;;4.15;2.75;;;24.90;31.50;;;;;;5054902;28;20385;-64
2023/04/18 12:20:14;;;;;;;5.47;2.75;;;24.80;32.00;;;;;;5055783;28;20104;-64
2023/04/18 12:22:46;;;;;;;3.67;2.80;;;24.80;32.60;;;;;;5054788;28;20017;-64
2023/04/18 12:25:23;;;;;;;4.30;2.88;;;24.90;32.60;;;;;;5054777;28;20017;-64
2023/04/18 12:27:53;;;;;;;3.88;2.80;;;24.90;32.40;;;;;;5056025;28;20028;-64
2023/04/18 12:30:21;;;;;;;5.25;3.00;;;24.90;32.70;;;;;;5056148;28;20434;-64
2023/04/18 12:33:01;;;;;;;4.38;3.05;;;24.90;32.90;;;;;;5055573;28;20032;-64
2023/04/18 12:35:29;;;;;;;3.25;2.47;;;24.80;33.30;;;;;;5056158;28;20021;-64
2023/04/18 12:38:01;;;;;;;3.92;2.40;;;24.70;33.30;;;;;;5054309;28;20056;-65
2023/04/18 12:40:28;;;;;;;3.15;2.70;;;24.60;33.10;;;;;;5055727;28;20037;-64
2023/04/18 12:42:56;;;;;;;2.85;2.55;;;24.50;33.40;;;;;;5055583;28;20072;-64
2023/04/18 12:45:23;;;;;;;2.95;2.65;;;24.50;33.00;;;;;;5055922;28;20021;-64
2023/04/18 12:47:51;;;;;;;3.70;2.55;;;24.50;33.00;;;;;;5020947;28;20033;-64